Time;durP1;ratioP1;P1;durP2;ratioP2;P2;SDS_P1;SDS_P2;PMS_P1;PMS_P2;Temp;Humidity;BMP_temperature;BMP_pressure;BME280_temperature;BME280_humidity;BME280_pressure;Samples;Min_cycle;Max_cycle;Signal;HPM_P1;HPM_P2
2022/10/26 00:00:38;;;;;;;7.10;4.75;;;;;;;22.65;46.28;95421.56;5064777;28;20044;-67
2022/10/26 00:03:03;;;;;;;7.78;4.75;;;;;;;22.63;46.17;95404.97;5046023;28;20044;-70
2022/10/26 00:05:31;;;;;;;8.52;4.55;;;;;;;22.64;46.06;95401.00;5064947;28;20098;-69
2022/10/26 00:07:56;;;;;;;7.18;5.13;;;;;;;22.47;45.87;95398.28;5046949;28;20039;-67
2022/10/26 00:10:22;;;;;;;6.95;4.78;;;;;;;22.63;45.89;95396.78;5046571;28;20032;-62
2022/10/26 00:12:50;;;;;;;7.80;4.72;;;;;;;22.62;46.00;95396.06;5065181;28;20024;-66
2022/10/26 00:15:17;;;;;;;7.97;4.88;;;;;;;22.62;46.05;95417.84;5048272;28;20165;-67
2022/10/26 00:17:42;;;;;;;8.35;5.30;;;;;;;22.62;46.12;95403.50;5046031;28;20041;-67
2022/10/26 00:20:08;;;;;;;7.40;5.18;;;;;;;22.63;46.43;95404.97;5047117;28;20385;-65
2022/10/26 00:22:33;;;;;;;7.72;5.15;;;;;;;22.62;46.01;95406.22;5064280;28;20465;-69
2022/10/26 00:24:59;;;;;;;8.25;5.40;;;;;;;22.60;46.16;95403.22;5046965;28;20059;-68
2022/10/26 00:27:24;;;;;;;6.43;4.85;;;;;;;22.61;46.23;95410.16;5045528;28;20117;-67
2022/10/26 00:29:50;;;;;;;7.32;5.07;;;;;;;22.46;46.23;95377.00;5023337;28;20066;-62
2022/10/26 00:32:15;;;;;;;6.88;5.03;;;;;;;22.59;46.35;95405.22;5064416;28;20046;-67
2022/10/26 00:34:40;;;;;;;7.15;4.88;;;;;;;22.59;46.45;95423.53;5064823;28;20052;-61
2022/10/26 00:37:06;;;;;;;8.38;4.70;;;;;;;22.58;45.99;95405.72;5065066;28;20032;-69
2022/10/26 00:39:31;;;;;;;7.53;5.22;;;;;;;21.73;46.35;95278.00;5064378;28;20049;-66
2022/10/26 00:41:57;;;;;;;7.60;4.93;;;;;;;22.58;46.08;95400.25;5045509;28;20051;-66
2022/10/26 00:45:06;;;;;;;6.30;4.45;;;;;;;22.58;46.52;95400.25;5059211;28;20548;-70
2022/10/26 00:47:49;;;;;;;8.13;5.20;;;;;;;22.56;45.96;95400.03;4970486;28;20105;-65
2022/10/26 00:50:30;;;;;;;7.93;5.00;;;;;;;22.40;46.54;95372.78;4983037;28;20982;-66
2022/10/26 00:52:56;;;;;;;8.25;4.97;;;;;;;22.50;45.97;95388.38;5019986;28;20055;-64
2022/10/26 00:55:23;;;;;;;8.55;5.50;;;;;;;22.31;46.38;95357.44;5063514;28;20028;-70
2022/10/26 00:57:48;;;;;;;8.35;5.32;;;;;;;22.45;46.14;95386.38;5046299;28;20024;-70
2022/10/26 01:00:14;;;;;;;6.68;5.03;;;;;;;22.53;46.26;95415.34;5045629;28;20747;-63
2022/10/26 01:02:39;;;;;;;9.02;5.38;;;;;;;22.51;46.17;95385.16;5045632;28;20040;-68
2022/10/26 01:05:05;;;;;;;8.65;5.35;;;;;;;22.54;46.14;95383.44;5031079;28;20040;-66
2022/10/26 01:07:31;;;;;;;7.55;5.40;;;;;;;22.52;46.42;95381.19;5030084;28;20540;-63
2022/10/26 01:09:56;;;;;;;8.13;5.28;;;;;;;22.43;46.41;95375.25;5049167;28;20037;-66
2022/10/26 01:12:22;;;;;;;8.30;5.50;;;;;;;22.51;46.36;95381.69;5029016;28;20063;-63
2022/10/26 01:14:47;;;;;;;7.15;5.05;;;;;;;22.53;46.50;95387.41;5063719;28;20048;-67
2022/10/26 01:17:27;;;;;;;7.72;5.15;;;;;;;22.52;46.21;95396.78;5063124;28;20033;-68
2022/10/26 01:20:27;;;;;;;8.18;5.38;;;;;;;22.51;46.21;95389.84;5045174;28;20105;-64
2022/10/26 01:23:11;;;;;;;7.65;5.13;;;;;;;22.52;46.20;95386.63;5045073;28;20135;-71
2022/10/26 01:25:39;;;;;;;7.30;5.13;;;;;;;20.97;46.33;95154.34;5043959;28;20037;-66
2022/10/26 01:28:11;;;;;;;7.90;5.40;;;;;;;22.50;46.19;95393.84;5055346;28;20028;-67
2022/10/26 01:30:43;;;;;;;8.02;4.70;;;;;;;22.50;46.45;95393.84;5029542;28;20060;-69
2022/10/26 01:33:23;;;;;;;7.93;5.28;;;;;;;22.50;46.17;95402.00;5028583;28;20048;-68
2022/10/26 01:36:12;;;;;;;7.03;4.90;;;;;;;22.49;46.53;95393.06;5063271;28;20135;-70
2022/10/26 01:38:49;;;;;;;8.35;5.60;;;;;;;22.49;46.52;95411.38;5038759;28;20123;-68
2022/10/26 01:41:31;;;;;;;7.93;5.60;;;;;;;22.49;46.52;95384.19;5043777;28;20523;-68
2022/10/26 01:44:06;;;;;;;8.23;5.50;;;;;;;22.47;46.28;95373.06;5044477;28;20041;-68
2022/10/26 01:46:35;;;;;;;8.13;5.45;;;;;;;22.49;46.53;95376.00;5038183;28;20064;-63
2022/10/26 01:49:02;;;;;;;7.20;5.28;;;;;;;22.41;46.24;95359.44;5045014;28;20110;-62
2022/10/26 01:51:28;;;;;;;8.25;5.45;;;;;;;22.47;46.61;95373.06;5039887;28;20061;-68
2022/10/26 01:53:53;;;;;;;7.88;5.68;;;;;;;22.46;46.45;95377.00;5044609;28;20761;-66
2022/10/26 01:56:24;;;;;;;8.23;5.00;;;;;;;22.37;46.29;95352.75;5027301;28;20064;-62
2022/10/26 01:59:13;;;;;;;7.85;5.60;;;;;;;22.46;46.47;95368.84;5012261;28;20040;-67
2022/10/26 02:01:49;;;;;;;7.68;5.45;;;;;;;21.59;46.14;95235.47;5057241;28;20052;-65
2022/10/26 02:04:36;;;;;;;7.68;5.28;;;;;;;22.45;46.62;95375.50;5045304;28;20055;-65
2022/10/26 02:07:21;;;;;;;8.57;5.20;;;;;;;22.36;46.71;95359.44;5061956;28;20704;-70
2022/10/26 02:10:04;;;;;;;7.32;4.90;;;;;;;22.45;46.43;95378.22;5029312;28;20063;-69
2022/10/26 02:12:35;;;;;;;7.13;4.95;;;;;;;22.43;46.43;95377.97;5044094;28;20053;-66
2022/10/26 02:15:15;;;;;;;7.22;5.00;;;;;;;22.43;46.48;95372.53;5045056;28;20052;-66
2022/10/26 02:17:54;;;;;;;6.93;5.00;;;;;;;22.42;46.68;95381.97;5027011;28;20048;-70
2022/10/26 02:20:26;;;;;;;6.95;5.13;;;;;;;21.55;46.65;95248.56;5044336;28;20052;-62
2022/10/26 02:22:51;;;;;;;6.93;5.25;;;;;;;22.14;46.08;95340.34;5044403;28;20044;-64
2022/10/26 02:25:21;;;;;;;8.25;5.60;;;;;;;22.41;46.67;95386.63;5028466;28;20036;-67
2022/10/26 02:27:49;;;;;;;8.57;5.07;;;;;;;21.84;46.30;95299.75;5048924;28;20084;-68
2022/10/26 02:30:14;;;;;;;7.75;4.80;;;;;;;22.41;46.58;95381.19;5044149;28;20045;-63
2022/10/26 02:32:41;;;;;;;6.57;5.07;;;;;;;22.29;46.62;95394.56;5044260;28;20419;-68
2022/10/26 02:35:07;;;;;;;7.38;5.03;;;;;;;22.41;46.49;95393.34;5028209;28;20040;-67
2022/10/26 02:37:33;;;;;;;7.93;5.35;;;;;;;22.40;46.72;95406.19;5057224;28;20525;-71
2022/10/26 02:39:59;;;;;;;7.93;5.50;;;;;;;20.82;46.25;95149.59;5040442;28;20777;-66
2022/10/26 02:42:24;;;;;;;7.28;5.30;;;;;;;22.40;46.55;95387.13;5027358;28;20058;-63
2022/10/26 02:44:58;;;;;;;7.22;4.72;;;;;;;22.29;46.27;95365.38;5044318;28;20516;-65
2022/10/26 02:47:25;;;;;;;9.18;6.00;;;;;;;21.50;46.46;95252.00;5013259;28;20398;-70
2022/10/26 02:49:50;;;;;;;7.38;5.07;;;;;;;22.39;46.32;95402.00;5022709;28;20041;-64
2022/10/26 02:52:37;;;;;;;7.53;5.68;;;;;;;22.19;46.36;95350.47;5050363;28;20131;-65
2022/10/26 02:55:24;;;;;;;6.20;4.80;;;;;;;22.38;46.53;95395.06;5052322;28;20079;-67
2022/10/26 02:58:01;;;;;;;6.72;4.82;;;;;;;20.27;46.25;95076.13;5022967;28;20049;-66
2022/10/26 03:00:27;;;;;;;6.93;5.10;;;;;;;21.49;46.49;95258.66;5064516;28;20059;-68
2022/10/26 03:02:54;;;;;;;7.82;5.40;;;;;;;22.19;46.71;95374.97;5012316;28;20508;-71
2022/10/26 03:05:20;;;;;;;8.18;5.60;;;;;;;22.33;46.46;95401.25;5028871;28;20515;-63
2022/10/26 03:07:46;;;;;;;7.40;5.10;;;;;;;22.36;46.44;95411.16;5031244;28;20051;-63
2022/10/26 03:10:11;;;;;;;8.13;5.22;;;;;;;22.36;46.59;95405.69;5048136;28;20028;-64
2022/10/26 03:12:37;;;;;;;6.85;5.18;;;;;;;22.37;46.36;95418.06;5064111;28;20041;-67
2022/10/26 03:15:03;;;;;;;7.70;5.30;;;;;;;22.33;46.75;95417.56;5065921;28;20086;-67
2022/10/26 03:17:28;;;;;;;7.45;5.40;;;;;;;22.35;46.47;95420.53;5047302;28;20048;-68
2022/10/26 03:19:55;;;;;;;7.68;5.28;;;;;;;22.15;46.77;95411.78;5047429;28;20045;-64
2022/10/26 03:22:20;;;;;;;7.65;5.40;;;;;;;22.33;46.35;95428.44;5064899;28;20103;-65
2022/10/26 03:24:46;;;;;;;7.93;5.32;;;;;;;22.34;46.58;95446.25;5065842;28;20208;-62
2022/10/26 03:27:11;;;;;;;7.25;5.32;;;;;;;22.34;46.45;95429.91;5057990;28;20048;-62
2022/10/26 03:29:37;;;;;;;7.70;5.47;;;;;;;21.46;46.65;95297.69;5060534;28;20520;-69
2022/10/26 03:32:02;;;;;;;8.05;5.10;;;;;;;22.32;46.64;95465.03;5065646;28;20527;-66
2022/10/26 03:34:27;;;;;;;7.32;5.05;;;;;;;21.79;46.74;95371.16;5064526;28;20526;-69
2022/10/26 03:36:53;;;;;;;7.65;5.07;;;;;;;21.88;46.56;95368.22;5031146;28;20032;-65
2022/10/26 03:39:18;;;;;;;6.30;4.88;;;;;;;22.30;47.01;95448.47;5053677;28;20051;-59
2022/10/26 03:41:44;;;;;;;7.80;5.45;;;;;;;22.14;46.79;95411.06;5064857;28;20048;-62
2022/10/26 03:44:09;;;;;;;8.02;5.60;;;;;;;21.44;46.61;95302.84;5065501;28;20504;-64
2022/10/26 03:46:35;;;;;;;8.27;5.50;;;;;;;22.30;46.78;95434.88;5064450;28;20060;-65
2022/10/26 03:49:00;;;;;;;7.93;5.60;;;;;;;22.30;46.71;95439.56;5046144;28;20052;-59
2022/10/26 03:51:26;;;;;;;7.97;5.80;;;;;;;22.30;46.51;95434.88;5046753;28;20056;-69
2022/10/26 03:53:52;;;;;;;8.50;5.45;;;;;;;22.16;46.91;95424.91;5065176;28;20114;-67
2022/10/26 03:56:17;;;;;;;8.45;5.43;;;;;;;22.28;46.92;95437.31;5046561;28;20041;-66
2022/10/26 03:58:43;;;;;;;8.15;5.35;;;;;;;22.17;46.58;95420.97;5065202;28;20036;-66
2022/10/26 04:01:08;;;;;;;8.95;5.35;;;;;;;22.28;46.70;95426.44;5026994;28;20033;-66
2022/10/26 04:03:34;;;;;;;8.05;5.18;;;;;;;22.27;47.13;95430.41;5058818;28;20102;-62
2022/10/26 04:06:00;;;;;;;7.13;5.13;;;;;;;21.40;46.51;95296.88;5046441;28;20044;-62
2022/10/26 04:08:26;;;;;;;8.52;5.47;;;;;;;22.28;46.71;95437.31;5064927;28;20048;-65
2022/10/26 04:10:51;;;;;;;8.30;5.22;;;;;;;22.26;46.91;95447.22;5045766;28;20048;-63
2022/10/26 04:13:16;;;;;;;7.72;5.35;;;;;;;22.27;46.55;95435.09;5065510;28;20036;-67
2022/10/26 04:15:42;;;;;;;8.48;5.43;;;;;;;22.26;46.78;95434.38;5046245;28;20060;-66
2022/10/26 04:18:08;;;;;;;8.38;5.55;;;;;;;22.26;46.99;95447.22;5063490;28;20033;-67
2022/10/26 04:20:35;;;;;;;8.60;5.10;;;;;;;21.83;46.84;95413.19;5046411;28;20094;-66
2022/10/26 04:23:04;;;;;;;8.65;6.13;;;;;;;22.25;47.07;95440.28;5032573;28;20480;-61
2022/10/26 04:25:30;;;;;;;6.72;5.03;;;;;;;22.25;46.72;95446.47;5063944;28;20555;-66
2022/10/26 04:27:56;;;;;;;9.20;5.10;;;;;;;22.21;46.69;95437.81;5046630;28;20029;-67
2022/10/26 04:30:21;;;;;;;7.20;5.13;;;;;;;22.15;46.88;95423.44;5046602;28;20048;-67
2022/10/26 04:32:47;;;;;;;8.13;5.68;;;;;;;22.24;46.85;95436.84;5045755;28;20093;-70
2022/10/26 04:35:12;;;;;;;7.03;5.45;;;;;;;22.24;47.01;95439.56;5045994;28;20039;-66
2022/10/26 04:37:38;;;;;;;7.45;5.15;;;;;;;22.25;46.87;95460.06;5064112;28;20044;-71
2022/10/26 04:40:03;;;;;;;7.95;5.47;;;;;;;22.12;47.02;95429.84;5064559;28;20029;-68
2022/10/26 04:42:32;;;;;;;6.93;5.40;;;;;;;21.50;46.95;95347.09;5028925;28;20207;-66
2022/10/26 04:44:58;;;;;;;8.55;5.30;;;;;;;22.25;46.71;95454.63;5026317;28;20154;-58
2022/10/26 04:47:24;;;;;;;8.00;5.47;;;;;;;22.11;46.73;95422.91;5042658;28;20785;-68
2022/10/26 04:49:49;;;;;;;8.88;5.57;;;;;;;22.27;46.52;95452.19;5025750;28;20049;-64
2022/10/26 04:52:15;;;;;;;8.23;5.82;;;;;;;21.60;46.90;95351.09;5037016;28;20098;-69
2022/10/26 04:54:40;;;;;;;8.43;5.78;;;;;;;22.34;46.58;95454.41;5045754;28;20102;-70
2022/10/26 04:57:06;;;;;;;7.60;5.82;;;;;;;22.40;46.73;95460.59;5058718;28;20065;-65
2022/10/26 04:59:31;;;;;;;7.93;5.70;;;;;;;22.20;46.91;95441.75;5027821;28;20047;-63
2022/10/26 05:01:57;;;;;;;8.18;5.43;;;;;;;21.59;47.22;95357.75;5034227;28;20154;-69
2022/10/26 05:04:22;;;;;;;8.82;5.80;;;;;;;22.31;47.05;95469.00;5043084;28;20021;-65
2022/10/26 05:06:47;;;;;;;8.60;5.65;;;;;;;22.30;47.00;95461.31;5027657;28;20068;-67
2022/10/26 05:09:13;;;;;;;7.65;5.57;;;;;;;22.30;47.06;95467.53;5031431;28;20063;-67
2022/10/26 05:11:38;;;;;;;7.45;5.20;;;;;;;22.30;47.33;95462.09;5054598;28;20283;-67
2022/10/26 05:14:04;;;;;;;9.40;6.22;;;;;;;22.30;47.33;95472.97;5063897;28;20040;-69
2022/10/26 05:16:29;;;;;;;7.22;5.38;;;;;;;22.29;47.25;95463.31;5063502;28;20040;-61
2022/10/26 05:18:55;;;;;;;8.10;5.45;;;;;;;22.29;47.08;95438.81;5051420;28;20452;-68
2022/10/26 05:21:20;;;;;;;9.52;5.70;;;;;;;22.51;47.24;95463.34;5045266;28;20052;-63
2022/10/26 05:23:52;;;;;;;7.90;5.88;;;;;;;22.44;47.75;95450.22;5049781;28;20044;-66
2022/10/26 05:26:18;;;;;;;8.15;5.57;;;;;;;22.57;48.73;95466.81;5020846;28;20041;-60
2022/10/26 05:28:44;;;;;;;8.45;5.32;;;;;;;21.72;50.21;95337.06;5029374;28;20041;-67
2022/10/26 05:31:09;;;;;;;6.65;4.72;;;;;;;22.59;49.37;95480.69;5046495;28;20044;-65
2022/10/26 05:33:35;;;;;;;9.30;5.35;;;;;;;22.61;50.27;95475.50;5044528;28;20843;-65
2022/10/26 05:36:00;;;;;;;7.85;5.00;;;;;;;22.59;50.88;95477.97;5024020;28;20572;-65
2022/10/26 05:38:26;;;;;;;7.30;5.20;;;;;;;21.71;49.87;95345.69;5054218;28;20610;-67
2022/10/26 05:40:52;;;;;;;7.57;4.88;;;;;;;22.71;50.44;95480.22;5045551;28;20052;-61
2022/10/26 05:43:18;;;;;;;8.35;5.10;;;;;;;22.82;51.57;95490.38;5045515;28;20728;-63
2022/10/26 05:45:44;;;;;;;7.85;5.38;;;;;;;22.83;49.63;95487.16;5042311;28;20540;-64
2022/10/26 05:48:09;;;;;;;7.25;4.68;;;;;;;22.90;49.21;95498.31;5044743;28;20052;-63
2022/10/26 05:50:35;;;;;;;8.60;5.65;;;;;;;23.05;49.11;95493.38;5044457;28;20077;-64
2022/10/26 05:53:00;;;;;;;6.63;4.53;;;;;;;23.09;48.26;95510.25;5044786;28;20062;-62
2022/10/26 05:55:26;;;;;;;7.53;5.15;;;;;;;22.94;48.38;95485.22;5043925;28;20059;-58
2022/10/26 05:57:52;;;;;;;6.75;4.85;;;;;;;23.03;48.26;95506.75;5044547;28;20040;-63
2022/10/26 06:00:22;;;;;;;6.70;4.57;;;;;;;22.33;48.40;95423.00;5058515;28;20046;-58
2022/10/26 06:02:59;;;;;;;9.07;5.13;;;;;;;22.18;48.53;95373.50;5024347;28;20053;-64
2022/10/26 06:05:26;;;;;;;8.48;5.10;;;;;;;23.00;48.25;95505.03;5032270;28;20075;-64
2022/10/26 06:07:52;;;;;;;6.72;4.85;;;;;;;22.96;48.00;95501.78;5045187;28;20700;-66
2022/10/26 06:10:18;;;;;;;5.88;4.38;;;;;;;22.45;47.84;95425.25;5039614;28;20048;-59
2022/10/26 06:12:44;;;;;;;8.75;4.90;;;;;;;23.14;47.09;95490.41;5044851;28;20053;-66
2022/10/26 06:15:15;;;;;;;7.82;4.68;;;;;;;23.48;47.70;95535.47;5056237;28;20043;-66
2022/10/26 06:17:56;;;;;;;7.47;4.85;;;;;;;23.44;47.12;95524.09;5040128;28;20067;-64
2022/10/26 06:20:49;;;;;;;8.60;5.05;;;;;;;23.42;46.99;95537.44;5052528;28;20040;-67
2022/10/26 06:23:37;;;;;;;6.78;4.50;;;;;;;23.45;46.99;95520.88;5043467;28;20597;-65
2022/10/26 06:26:23;;;;;;;7.18;4.75;;;;;;;23.58;46.64;95520.34;5011555;28;20041;-61
2022/10/26 06:29:13;;;;;;;8.18;4.72;;;;;;;23.54;46.55;95517.13;5057151;28;20044;-67
2022/10/26 06:31:38;;;;;;;7.07;4.53;;;;;;;23.70;46.30;95530.03;5032442;28;20068;-65
2022/10/26 06:34:04;;;;;;;6.38;4.82;;;;;;;23.66;46.30;95529.53;5017723;28;20025;-62
2022/10/26 06:36:29;;;;;;;7.43;4.95;;;;;;;23.73;46.52;95529.03;5050578;28;20044;-62
2022/10/26 06:39:09;;;;;;;8.00;5.15;;;;;;;23.81;46.37;95524.53;5008078;28;20930;-62
2022/10/26 06:41:35;;;;;;;7.60;5.30;;;;;;;24.08;45.47;95525.22;5037490;28;20159;-62
2022/10/26 06:44:03;;;;;;;7.78;5.10;;;;;;;23.84;45.63;95524.31;5058099;28;20079;-64
2022/10/26 06:46:43;;;;;;;6.57;4.47;;;;;;;23.67;46.00;95525.56;5046241;28;20109;-66
2022/10/26 06:49:28;;;;;;;6.10;4.28;;;;;;;23.45;46.08;95471.03;5037866;28;20532;-60
2022/10/26 06:52:01;;;;;;;7.00;4.78;;;;;;;23.67;46.20;95541.94;5039354;28;20061;-63
2022/10/26 06:54:52;;;;;;;6.70;4.55;;;;;;;23.61;46.36;95533.72;5029331;28;20086;-62
2022/10/26 06:57:18;;;;;;;6.20;4.32;;;;;;;23.47;46.78;95536.72;5040225;28;20057;-59
2022/10/26 06:59:52;;;;;;;6.07;4.15;;;;;;;23.57;45.75;95533.25;5030750;28;20045;-62
2022/10/26 07:02:18;;;;;;;6.20;4.28;;;;;;;23.30;46.33;95557.78;5036722;28;20076;-62
2022/10/26 07:04:44;;;;;;;7.30;4.63;;;;;;;23.27;46.09;95520.59;5023040;28;20037;-67
2022/10/26 07:07:35;;;;;;;5.65;4.03;;;;;;;23.38;46.14;95553.34;5047760;28;20068;-57
2022/10/26 07:10:01;;;;;;;7.72;4.60;;;;;;;23.37;46.38;95551.09;5036526;28;20101;-64
2022/10/26 07:12:26;;;;;;;8.32;4.38;;;;;;;23.32;46.43;95555.31;5022402;28;20064;-62
2022/10/26 07:14:52;;;;;;;8.68;4.75;;;;;;;23.21;46.69;95533.50;5031829;28;20106;-67
2022/10/26 07:17:17;;;;;;;6.95;4.63;;;;;;;22.57;46.13;95436.88;5035503;28;21643;-64
2022/10/26 07:19:43;;;;;;;7.22;4.13;;;;;;;23.27;46.71;95552.56;5024614;28;20401;-69
2022/10/26 07:22:09;;;;;;;8.73;4.75;;;;;;;23.30;46.27;95552.31;5040794;28;20029;-62
2022/10/26 07:24:34;;;;;;;5.93;4.40;;;;;;;23.35;46.22;95553.56;5030446;28;20049;-62
2022/10/26 07:27:00;;;;;;;6.88;3.95;;;;;;;23.30;46.08;95552.31;5029831;28;20049;-65
2022/10/26 07:29:25;;;;;;;6.63;4.32;;;;;;;22.84;46.31;95487.88;5032434;28;20050;-66
2022/10/26 07:31:51;;;;;;;5.70;4.20;;;;;;;23.28;46.17;95554.81;5049067;28;20049;-60
2022/10/26 07:34:16;;;;;;;5.90;4.10;;;;;;;22.24;46.60;95404.19;5027976;28;20036;-60
2022/10/26 07:36:42;;;;;;;6.38;4.28;;;;;;;22.19;46.05;95385.84;5040368;28;20067;-67
2022/10/26 07:39:07;;;;;;;6.55;4.22;;;;;;;23.23;46.11;95550.09;5041254;28;20044;-65
2022/10/26 07:41:33;;;;;;;7.32;4.10;;;;;;;23.22;46.25;95559.50;5028836;28;20044;-64
2022/10/26 07:43:59;;;;;;;6.65;4.15;;;;;;;22.29;46.13;95417.06;5023439;28;20090;-64
2022/10/26 07:46:24;;;;;;;6.07;4.25;;;;;;;22.32;46.14;95426.22;5026643;28;20041;-64
2022/10/26 07:48:50;;;;;;;5.60;3.92;;;;;;;23.23;46.39;95541.94;5025236;28;20071;-63
2022/10/26 07:51:15;;;;;;;7.38;4.18;;;;;;;23.13;45.95;95521.59;5038074;28;20505;-56
2022/10/26 07:53:40;;;;;;;7.68;4.30;;;;;;;23.16;46.17;95531.53;5026001;28;20059;-59
2022/10/26 07:56:06;;;;;;;5.95;3.88;;;;;;;23.33;45.85;95540.44;5024784;28;20099;-62
2022/10/26 07:58:32;;;;;;;5.78;4.20;;;;;;;23.27;45.77;95553.31;5040098;28;20586;-63
2022/10/26 08:01:03;;;;;;;6.50;3.92;;;;;;;23.29;46.09;95539.94;5028821;28;20033;-61
2022/10/26 08:03:29;;;;;;;6.18;4.28;;;;;;;22.54;46.18;95429.69;5036259;28;20052;-68
2022/10/26 08:05:54;;;;;;;5.90;4.43;;;;;;;23.31;45.61;95536.72;5023753;28;20045;-62
2022/10/26 08:08:20;;;;;;;5.40;4.05;;;;;;;23.31;45.84;95537.47;5023307;28;20489;-64
2022/10/26 08:10:45;;;;;;;5.15;3.53;;;;;;;23.32;46.01;95533.50;5045991;28;20049;-65
2022/10/26 08:13:11;;;;;;;5.60;4.00;;;;;;;23.23;45.97;95544.66;5039264;28;20418;-66
2022/10/26 08:15:36;;;;;;;5.47;4.00;;;;;;;23.36;46.04;95544.88;5026724;28;20084;-64
2022/10/26 08:18:02;;;;;;;8.27;4.10;;;;;;;23.38;45.54;95542.44;5042402;28;20044;-60
2022/10/26 08:20:28;;;;;;;6.68;4.25;;;;;;;23.38;45.62;95531.53;5045086;28;20570;-67
2022/10/26 08:22:57;;;;;;;5.10;3.75;;;;;;;23.38;45.94;95553.34;5043476;28;20041;-64
2022/10/26 08:25:22;;;;;;;7.60;4.05;;;;;;;23.46;45.35;95537.94;5030630;28;20064;-62
2022/10/26 08:27:48;;;;;;;5.82;3.83;;;;;;;22.68;45.37;95442.34;5017688;28;20537;-69
2022/10/26 08:30:13;;;;;;;6.70;3.97;;;;;;;23.47;45.70;95534.00;5025707;28;20371;-67
2022/10/26 08:32:39;;;;;;;6.63;4.35;;;;;;;23.32;45.60;95530.78;5021326;28;20095;-60
2022/10/26 08:35:05;;;;;;;6.45;4.07;;;;;;;22.65;45.54;95410.66;5023564;28;20045;-63
2022/10/26 08:37:30;;;;;;;5.60;3.92;;;;;;;23.49;45.61;95526.06;5027632;28;20501;-64
2022/10/26 08:39:56;;;;;;;6.03;4.35;;;;;;;23.44;45.69;95530.28;5060709;28;20519;-65
2022/10/26 08:42:29;;;;;;;5.07;3.70;;;;;;;23.37;45.43;95524.59;5042201;28;20045;-66
2022/10/26 08:44:57;;;;;;;5.47;3.72;;;;;;;22.51;45.22;95395.28;5040407;28;20927;-64
2022/10/26 08:47:29;;;;;;;5.28;3.58;;;;;;;23.40;45.73;95529.03;5010832;28;20124;-68
2022/10/26 08:50:08;;;;;;;5.35;3.78;;;;;;;23.32;45.84;95522.59;5039946;28;20064;-60
2022/10/26 08:52:50;;;;;;;6.05;3.75;;;;;;;23.38;46.10;95547.88;5005724;28;20780;-65
2022/10/26 08:55:20;;;;;;;5.55;3.88;;;;;;;23.34;45.97;95541.94;5014619;28;20025;-63
2022/10/26 08:57:46;;;;;;;5.97;3.80;;;;;;;23.29;46.14;95545.41;5025035;28;20441;-63
2022/10/26 09:00:22;;;;;;;5.80;3.85;;;;;;;23.28;46.64;95557.53;5010836;28;20063;-65
2022/10/26 09:02:51;;;;;;;5.72;3.70;;;;;;;23.34;46.18;95547.38;5009211;28;20052;-63
2022/10/26 09:05:23;;;;;;;6.75;3.45;;;;;;;22.89;45.74;95480.47;5041127;28;20037;-63
2022/10/26 09:07:56;;;;;;;5.88;3.60;;;;;;;23.42;46.23;95530.03;5026502;28;20033;-62
2022/10/26 09:10:54;;;;;;;7.15;3.40;;;;;;;23.46;46.33;95532.50;5025830;28;20060;-65
2022/10/26 09:13:33;;;;;;;7.35;3.35;;;;;;;23.51;46.34;95534.47;5035883;28;20056;-62
2022/10/26 09:16:06;;;;;;;5.97;3.80;;;;;;;23.59;45.72;95519.13;5009609;28;20067;-60
2022/10/26 09:19:00;;;;;;;5.78;3.63;;;;;;;23.58;45.76;95533.97;5042048;28;20045;-59
2022/10/26 09:21:47;;;;;;;5.57;3.28;;;;;;;23.89;45.52;95529.72;5041616;28;20537;-67
2022/10/26 09:24:28;;;;;;;6.13;3.83;;;;;;;23.64;45.47;95482.94;5007866;28;20757;-67
2022/10/26 09:26:55;;;;;;;5.90;3.33;;;;;;;23.98;45.63;95524.00;5040261;28;20063;-60
2022/10/26 09:29:33;;;;;;;6.82;4.38;;;;;;;23.59;45.34;95464.59;5024551;28;20245;-63
2022/10/26 09:31:59;;;;;;;10.50;5.03;;;;;;;24.20;45.25;95523.94;5023087;28;20049;-60
2022/10/26 09:34:54;;;;;;;6.30;4.20;;;;;;;24.35;44.93;95529.84;5027033;28;20041;-61
2022/10/26 09:37:24;;;;;;;7.57;4.70;;;;;;;24.41;45.11;95522.38;5023419;28;20131;-62
2022/10/26 09:40:14;;;;;;;8.23;5.13;;;;;;;24.54;44.65;95519.81;5010016;28;20052;-64
2022/10/26 09:42:59;;;;;;;7.18;4.20;;;;;;;24.55;44.47;95515.84;5016404;28;20114;-60
2022/10/26 09:45:33;;;;;;;8.27;4.53;;;;;;;24.52;45.12;95516.84;5043554;28;20072;-67
2022/10/26 09:48:04;;;;;;;6.70;4.63;;;;;;;24.77;44.20;95515.72;5024089;28;20159;-63
2022/10/26 09:50:34;;;;;;;7.78;4.07;;;;;;;24.48;44.32;95497.25;5011752;28;20152;-65
2022/10/26 09:53:00;;;;;;;7.53;4.05;;;;;;;24.79;43.86;95516.69;5028788;28;20048;-69
2022/10/26 09:55:26;;;;;;;7.65;4.28;;;;;;;24.91;43.54;95507.91;5045411;28;20509;-69
2022/10/26 09:57:54;;;;;;;7.25;3.92;;;;;;;24.86;43.36;95514.16;5023349;28;20448;-65
2022/10/26 10:00:21;;;;;;;7.63;4.30;;;;;;;24.89;43.47;95504.97;5040256;28;20541;-63
2022/10/26 10:02:59;;;;;;;7.13;3.83;;;;;;;23.63;43.25;95328.72;5024337;28;20432;-63
2022/10/26 10:05:32;;;;;;;6.38;3.35;;;;;;;24.86;43.15;95497.78;5046328;28;20056;-61
2022/10/26 10:08:20;;;;;;;6.28;3.92;;;;;;;25.10;42.75;95495.16;5049803;28;20063;-67
2022/10/26 10:11:07;;;;;;;6.40;3.55;;;;;;;25.05;42.62;95498.66;5057196;28;20167;-61
2022/10/26 10:13:35;;;;;;;5.25;3.33;;;;;;;24.96;42.24;95485.28;5042940;28;20173;-65
2022/10/26 10:16:16;;;;;;;5.97;3.60;;;;;;;25.14;42.23;95490.16;5039936;28;20028;-64
2022/10/26 10:18:42;;;;;;;5.45;3.13;;;;;;;25.17;42.23;95489.13;5041944;28;20041;-68
2022/10/26 10:21:08;;;;;;;5.32;3.20;;;;;;;25.29;41.92;95490.53;5020745;28;20494;-63
2022/10/26 10:23:52;;;;;;;4.63;3.30;;;;;;;25.36;41.63;95484.47;5024422;28;20086;-66
2022/10/26 10:26:17;;;;;;;5.03;2.97;;;;;;;25.11;41.98;95452.16;5042061;28;20596;-62
2022/10/26 10:28:43;;;;;;;5.13;3.10;;;;;;;25.23;41.97;95487.09;5040614;28;20036;-64
2022/10/26 10:31:22;;;;;;;6.40;3.20;;;;;;;24.96;41.75;95452.50;5028865;28;20055;-66
2022/10/26 10:33:48;;;;;;;4.18;2.70;;;;;;;25.17;41.93;95480.94;5023645;28;20033;-67
2022/10/26 10:36:21;;;;;;;4.07;2.45;;;;;;;25.35;41.70;95472.06;5044202;28;20048;-67
2022/10/26 10:38:49;;;;;;;4.60;2.67;;;;;;;24.83;41.31;95366.94;5043762;28;20451;-61
2022/10/26 10:41:27;;;;;;;6.38;2.60;;;;;;;25.53;41.36;95461.22;5061655;28;20055;-64
2022/10/26 10:44:00;;;;;;;4.68;2.97;;;;;;;25.55;41.23;95466.16;5044387;28;20032;-64
2022/10/26 10:46:26;;;;;;;4.22;2.47;;;;;;;25.34;41.94;95462.38;5043673;28;20036;-65
2022/10/26 10:48:54;;;;;;;5.22;3.05;;;;;;;25.38;41.75;95471.78;5027489;28;20051;-64
2022/10/26 10:51:21;;;;;;;5.88;2.60;;;;;;;25.20;42.21;95477.19;5043092;28;20056;-60
2022/10/26 10:53:51;;;;;;;4.70;2.70;;;;;;;25.24;42.04;95461.22;5044463;28;20063;-65
2022/10/26 10:56:48;;;;;;;4.95;2.50;;;;;;;25.35;41.60;95461.13;5042178;28;20572;-63
2022/10/26 10:59:38;;;;;;;6.88;2.72;;;;;;;25.47;41.21;95462.50;5031591;28;20045;-68
2022/10/26 11:02:25;;;;;;;4.80;2.90;;;;;;;25.48;41.59;95453.03;5042438;28;20037;-62
2022/10/26 11:05:00;;;;;;;5.80;2.65;;;;;;;25.52;41.31;95453.50;5043139;28;20044;-65
2022/10/26 11:07:26;;;;;;;6.05;2.50;;;;;;;25.54;41.21;95449.00;5043265;28;20041;-63
2022/10/26 11:09:52;;;;;;;4.85;2.33;;;;;;;25.61;41.11;95442.97;5045142;28;20035;-63
2022/10/26 11:12:39;;;;;;;4.93;2.65;;;;;;;25.87;40.63;95443.94;5025597;28;20044;-66
2022/10/26 11:15:07;;;;;;;4.93;2.63;;;;;;;25.78;40.90;95437.34;5042873;28;20433;-62
2022/10/26 11:17:49;;;;;;;4.32;2.58;;;;;;;25.81;40.88;95448.75;5032420;28;20129;-71
2022/10/26 11:20:16;;;;;;;4.72;2.47;;;;;;;25.93;40.60;95444.63;5058083;28;20048;-60
2022/10/26 11:22:54;;;;;;;6.38;2.42;;;;;;;25.79;41.32;95442.31;5026039;28;20051;-71
2022/10/26 11:25:40;;;;;;;4.13;2.42;;;;;;;25.92;40.66;95442.41;5058028;28;20496;-61
2022/10/26 11:28:25;;;;;;;5.38;2.75;;;;;;;25.95;40.74;95444.13;5060511;28;20060;-63
2022/10/26 11:30:55;;;;;;;4.70;2.28;;;;;;;25.62;40.97;95413.59;5050953;28;20660;-61
2022/10/26 11:33:53;;;;;;;3.83;2.67;;;;;;;25.79;41.03;95443.03;5034640;28;20037;-66
2022/10/26 11:36:19;;;;;;;4.53;2.50;;;;;;;25.89;40.92;95433.22;5030687;28;21337;-66
2022/10/26 11:38:51;;;;;;;3.10;1.90;;;;;;;25.91;40.74;95452.59;5011727;28;20087;-58
2022/10/26 11:41:37;;;;;;;5.07;2.20;;;;;;;25.75;40.84;95435.63;5014853;28;20536;-64
2022/10/26 11:44:27;;;;;;;4.10;2.50;;;;;;;25.11;41.25;95340.84;5044839;28;20050;-68
2022/10/26 11:46:56;;;;;;;;;;;;;;;25.92;40.81;95421.25;5065662;28;20040;-70
2022/10/26 11:49:51;;;;;;;3.22;2.03;;;;;;;25.91;40.67;95422.50;5064576;28;19913;-73